Time;durP1;ratioP1;P1;durP2;ratioP2;P2;SDS_P1;SDS_P2;PMS_P1;PMS_P2;Temp;Humidity;BMP_temperature;BMP_pressure;BME280_temperature;BME280_humidity;BME280_pressure;Samples;Min_cycle;Max_cycle;Signal;HPM_P1;HPM_P2
2022/11/08 00:02:09;;;;;;;20.80;4.50;;;;;;;;;;4958911;28;20269;-78
2022/11/08 00:04:37;;;;;;;21.83;4.25;;;;;;;;;;4959575;28;20817;-78
2022/11/08 00:15:19;;;;;;;21.63;5.65;;;;;;;;;;4948824;28;20033;-78
2022/11/08 00:17:44;;;;;;;23.00;6.60;;;;;;;;;;4957870;28;20062;-79
2022/11/08 00:20:10;;;;;;;26.73;6.75;;;;;;;;;;4953394;28;20067;-78
2022/11/08 00:22:36;;;;;;;25.48;6.70;;;;;;;;;;4952872;28;20041;-78
2022/11/08 00:25:02;;;;;;;21.95;5.32;;;;;;;;;;4961883;28;20607;-79
2022/11/08 00:27:32;;;;;;;23.63;6.38;;;;;;;;;;4952531;28;20583;-78
2022/11/08 00:29:58;;;;;;;20.35;5.95;;;;;;;;;;4958156;28;20678;-78
2022/11/08 00:32:26;;;;;;;21.48;5.82;;;;;;;;;;4965399;28;20045;-80
2022/11/08 00:34:52;;;;;;;27.08;6.43;;;;;;;;;;4962469;28;20564;-79
2022/11/08 00:37:19;;;;;;;26.55;7.53;;;;;;;;;;4960517;28;20034;-78
2022/11/08 00:39:47;;;;;;;27.23;9.45;;;;;;;;;;4962162;28;20805;-80
2022/11/08 00:42:15;;;;;;;36.67;10.38;;;;;;;;;;4941966;28;20038;-78
2022/11/08 00:44:46;;;;;;;32.13;8.82;;;;;;;;;;4964406;28;20440;-85
2022/11/08 00:47:12;;;;;;;38.30;9.93;;;;;;;;;;4945104;28;20144;-78
2022/11/08 00:49:37;;;;;;;40.67;10.98;;;;;;;;;;4962781;28;20534;-78
2022/11/08 00:52:03;;;;;;;37.45;9.57;;;;;;;;;;4959896;28;20162;-78
2022/11/08 00:54:33;;;;;;;33.13;8.88;;;;;;;;;;4952658;28;20042;-78
2022/11/08 00:56:58;;;;;;;32.33;8.60;;;;;;;;;;4957842;28;20135;-78
2022/11/08 00:59:26;;;;;;;28.15;8.35;;;;;;;;;;4941809;28;20764;-78
2022/11/08 01:01:54;;;;;;;30.90;10.45;;;;;;;;;;4938265;28;20120;-79
2022/11/08 01:04:20;;;;;;;40.97;11.38;;;;;;;;;;4960049;28;20050;-78
2022/11/08 01:06:46;;;;;;;30.33;9.20;;;;;;;;;;4924224;28;20854;-79
2022/11/08 01:09:12;;;;;;;30.95;9.77;;;;;;;;;;4936441;28;20030;-79
2022/11/08 01:11:44;;;;;;;30.80;10.80;;;;;;;;;;4937699;28;20589;-79
2022/11/08 01:14:09;;;;;;;33.78;10.80;;;;;;;;;;4972550;28;20026;-84
2022/11/08 01:16:39;;;;;;;31.75;10.77;;;;;;;;;;4999751;28;20301;-84
2022/11/08 01:19:04;;;;;;;31.65;8.15;;;;;;;;;;4985314;28;20596;-83
2022/11/08 01:21:32;;;;;;;33.75;9.93;;;;;;;;;;4975555;28;20491;-82
2022/11/08 01:23:58;;;;;;;35.67;9.98;;;;;;;;;;4989363;28;20045;-82
2022/11/08 01:26:25;;;;;;;21.52;5.60;;;;;;;;;;5001245;28;20038;-83
2022/11/08 01:28:50;;;;;;;33.78;9.70;;;;;;;;;;4997760;28;20060;-84
2022/11/08 01:31:17;;;;;;;27.00;8.57;;;;;;;;;;5004608;28;20474;-83
2022/11/08 01:33:42;;;;;;;33.30;10.43;;;;;;;;;;4992404;28;20029;-86
2022/11/08 01:36:14;;;;;;;30.65;9.00;;;;;;;;;;5017000;28;20021;-83
2022/11/08 01:38:40;;;;;;;33.90;9.23;;;;;;;;;;5006143;28;20079;-86
2022/11/08 01:41:09;;;;;;;25.40;7.95;;;;;;;;;;5012631;28;20496;-82
2022/11/08 01:43:39;;;;;;;40.50;10.98;;;;;;;;;;5007108;28;20205;-83
2022/11/08 01:46:11;;;;;;;30.83;10.02;;;;;;;;;;5003381;28;20045;-84
2022/11/08 01:48:38;;;;;;;30.02;9.23;;;;;;;;;;4947605;28;20236;-79
2022/11/08 01:51:05;;;;;;;35.45;10.25;;;;;;;;;;4949229;28;20033;-78
2022/11/08 01:53:31;;;;;;;19.10;6.30;;;;;;;;;;4949785;28;20474;-78
2022/11/08 01:55:56;;;;;;;24.90;7.10;;;;;;;;;;4946790;28;20035;-79
2022/11/08 01:58:24;;;;;;;29.83;8.30;;;;;;;;;;4961171;28;20112;-78
2022/11/08 02:00:50;;;;;;;18.67;5.57;;;;;;;;;;4956723;28;20049;-78
2022/11/08 02:03:16;;;;;;;17.65;5.95;;;;;;;;;;4965067;28;20038;-79
2022/11/08 02:05:42;;;;;;;18.00;5.10;;;;;;;;;;4956110;28;21281;-77
2022/11/08 02:08:23;;;;;;;16.02;4.88;;;;;;;;;;4964245;28;20163;-78
2022/11/08 02:10:49;;;;;;;18.25;6.22;;;;;;;;;;4937572;28;20038;-78
2022/11/08 02:13:17;;;;;;;18.33;5.57;;;;;;;;;;4928444;28;20034;-79
2022/11/08 02:15:45;;;;;;;30.10;8.35;;;;;;;;;;4951431;28;20048;-78
2022/11/08 02:18:11;;;;;;;23.55;7.88;;;;;;;;;;4949092;28;21940;-78
2022/11/08 02:20:39;;;;;;;18.00;7.43;;;;;;;;;;4961722;28;20049;-79
2022/11/08 02:23:34;;;;;;;18.60;5.55;;;;;;;;;;4948179;28;20192;-79
2022/11/08 02:26:01;;;;;;;14.65;4.38;;;;;;;;;;4948086;28;20052;-79
2022/11/08 02:28:29;;;;;;;24.20;7.13;;;;;;;;;;4950117;28;20080;-79
2022/11/08 02:30:54;;;;;;;15.50;4.75;;;;;;;;;;4962736;28;20041;-79
2022/11/08 02:33:21;;;;;;;15.23;3.97;;;;;;;;;;4927824;28;20319;-79
2022/11/08 02:35:50;;;;;;;14.50;4.53;;;;;;;;;;4953441;28;20077;-79
2022/11/08 02:38:16;;;;;;;19.80;6.22;;;;;;;;;;4936112;28;20614;-79
2022/11/08 02:40:46;;;;;;;20.15;6.60;;;;;;;;;;4957479;28;20100;-78
2022/11/08 02:43:15;;;;;;;11.45;4.20;;;;;;;;;;4942196;28;22278;-77
2022/11/08 02:45:41;;;;;;;17.17;4.43;;;;;;;;;;4948190;28;20769;-88
2022/11/08 02:48:07;;;;;;;12.40;4.72;;;;;;;;;;4942668;28;20038;-87
2022/11/08 02:50:33;;;;;;;12.85;5.18;;;;;;;;;;4966812;28;20343;-89
2022/11/08 02:53:01;;;;;;;16.80;5.38;;;;;;;;;;4946833;28;20026;-85
2022/11/08 02:55:34;;;;;;;16.95;6.00;;;;;;;;;;4934192;28;20042;-87
2022/11/08 02:58:03;;;;;;;13.68;4.85;;;;;;;;;;4973341;28;20948;-90
2022/11/08 03:00:38;;;;;;;15.48;5.47;;;;;;;;;;4967190;28;20041;-89
2022/11/08 03:03:15;;;;;;;17.25;6.78;;;;;;;;;;4924538;28;20030;-87
2022/11/08 03:05:46;;;;;;;25.83;8.55;;;;;;;;;;4955929;28;20037;-85
2022/11/08 03:08:12;;;;;;;19.50;7.20;;;;;;;;;;4964225;28;20598;-78
2022/11/08 03:10:37;;;;;;;23.17;6.70;;;;;;;;;;4946335;28;20133;-78
2022/11/08 03:13:04;;;;;;;15.82;6.43;;;;;;;;;;4959212;28;20031;-86
2022/11/08 03:15:29;;;;;;;16.13;5.90;;;;;;;;;;4988335;28;20034;-88
2022/11/08 03:17:55;;;;;;;15.00;5.88;;;;;;;;;;4968790;28;20041;-87
2022/11/08 03:20:25;;;;;;;14.20;5.60;;;;;;;;;;4967302;28;20030;-87
2022/11/08 03:22:58;;;;;;;12.35;5.32;;;;;;;;;;4986310;28;20071;-89
2022/11/08 03:25:23;;;;;;;13.95;5.65;;;;;;;;;;4980226;28;20042;-89
2022/11/08 03:27:49;;;;;;;21.92;6.95;;;;;;;;;;4968179;28;20030;-86
2022/11/08 03:30:15;;;;;;;24.88;8.00;;;;;;;;;;4935129;28;20571;-86
2022/11/08 03:32:42;;;;;;;18.45;8.05;;;;;;;;;;4968844;28;20096;-87
2022/11/08 03:35:08;;;;;;;15.02;5.47;;;;;;;;;;4970946;28;20215;-86
2022/11/08 03:37:37;;;;;;;20.77;7.45;;;;;;;;;;4967301;28;20034;-77
2022/11/08 03:40:02;;;;;;;17.67;6.20;;;;;;;;;;4947831;28;20037;-78
2022/11/08 03:42:33;;;;;;;15.18;6.70;;;;;;;;;;4937835;28;20038;-78
2022/11/08 03:45:04;;;;;;;14.88;6.30;;;;;;;;;;4933325;28;20112;-77
2022/11/08 03:47:45;;;;;;;19.75;7.45;;;;;;;;;;4949431;28;20034;-77
2022/11/08 03:50:15;;;;;;;22.13;7.65;;;;;;;;;;4925766;28;20038;-78
2022/11/08 03:52:41;;;;;;;25.95;10.18;;;;;;;;;;4923158;28;20042;-78
2022/11/08 03:55:08;;;;;;;23.25;8.18;;;;;;;;;;4942554;28;20045;-78
2022/11/08 03:57:34;;;;;;;24.48;9.20;;;;;;;;;;4945013;28;20069;-79
2022/11/08 04:00:02;;;;;;;19.75;7.65;;;;;;;;;;4941903;28;20061;-78
2022/11/08 04:02:29;;;;;;;21.42;7.80;;;;;;;;;;4932114;28;20139;-78
2022/11/08 04:04:55;;;;;;;21.98;8.70;;;;;;;;;;4920269;28;20517;-79
2022/11/08 04:07:24;;;;;;;22.48;8.55;;;;;;;;;;4909769;28;21728;-78
2022/11/08 04:09:52;;;;;;;16.35;6.35;;;;;;;;;;4925069;28;20348;-78
2022/11/08 04:15:14;;;;;;;18.92;7.45;;;;;;;;;;4935831;28;20038;-79
2022/11/08 04:23:08;;;;;;;26.85;12.32;;;;;;;;;;4946011;28;20058;-76
2022/11/08 04:25:34;;;;;;;32.05;12.90;;;;;;;;;;4969456;28;20126;-87
2022/11/08 04:27:59;;;;;;;29.42;11.57;;;;;;;;;;4928224;28;20126;-85
2022/11/08 04:30:27;;;;;;;22.75;10.40;;;;;;;;;;4962532;28;20033;-86
2022/11/08 04:32:53;;;;;;;22.80;10.68;;;;;;;;;;4943926;28;20121;-92
2022/11/08 04:35:27;;;;;;;23.88;10.60;;;;;;;;;;4955985;28;20031;-82
2022/11/08 04:37:57;;;;;;;22.73;9.73;;;;;;;;;;4940678;28;20467;-88
2022/11/08 04:40:24;;;;;;;20.02;9.60;;;;;;;;;;4951874;28;20515;-87
2022/11/08 04:42:50;;;;;;;27.02;12.70;;;;;;;;;;4924021;28;20045;-88
2022/11/08 04:45:16;;;;;;;22.90;10.77;;;;;;;;;;4905823;28;20035;-78
2022/11/08 04:47:45;;;;;;;21.98;9.05;;;;;;;;;;4922785;28;20046;-78
2022/11/08 04:50:14;;;;;;;22.38;9.30;;;;;;;;;;4940576;28;20549;-77
2022/11/08 04:52:52;;;;;;;23.35;9.82;;;;;;;;;;4888482;28;20038;-76
2022/11/08 04:55:18;;;;;;;32.35;15.50;;;;;;;;;;4920216;28;20612;-89
2022/11/08 04:57:48;;;;;;;52.47;21.15;;;;;;;;;;4939374;28;20463;-90
2022/11/08 05:00:14;;;;;;;26.08;10.45;;;;;;;;;;4928291;28;20547;-86
2022/11/08 05:02:39;;;;;;;20.58;8.45;;;;;;;;;;4957383;28;20041;-86
2022/11/08 05:05:08;;;;;;;20.98;7.82;;;;;;;;;;4951631;28;20038;-87
2022/11/08 05:07:36;;;;;;;18.83;8.07;;;;;;;;;;4938878;28;20507;-87
2022/11/08 05:10:04;;;;;;;15.18;6.60;;;;;;;;;;4959103;28;20152;-83
2022/11/08 05:12:32;;;;;;;19.65;6.05;;;;;;;;;;4950644;28;20041;-84
2022/11/08 05:15:00;;;;;;;15.95;7.40;;;;;;;;;;4976253;28;20112;-85
2022/11/08 05:17:26;;;;;;;23.95;7.50;;;;;;;;;;4942420;28;20050;-87
2022/11/08 05:25:20;;;;;;;15.65;7.20;;;;;;;;;;4938664;28;20318;-87
2022/11/08 05:27:46;;;;;;;14.48;5.47;;;;;;;;;;4965573;28;20053;-88
2022/11/08 05:30:14;;;;;;;15.23;6.53;;;;;;;;;;4964890;28;20125;-85
2022/11/08 05:32:45;;;;;;;15.07;6.15;;;;;;;;;;4941711;28;20110;-89
2022/11/08 05:35:20;;;;;;;26.23;11.40;;;;;;;;;;4924605;28;20136;-90
2022/11/08 05:37:49;;;;;;;22.55;10.00;;;;;;;;;;4942597;28;20309;-87
2022/11/08 05:40:14;;;;;;;20.13;7.95;;;;;;;;;;4944493;28;20123;-76
2022/11/08 05:42:40;;;;;;;11.25;5.00;;;;;;;;;;4910864;28;20033;-88
2022/11/08 05:45:07;;;;;;;12.27;5.20;;;;;;;;;;4949902;28;20036;-87
2022/11/08 05:47:33;;;;;;;13.88;5.20;;;;;;;;;;4948395;28;20038;-77
2022/11/08 05:50:01;;;;;;;15.65;5.13;;;;;;;;;;4936909;28;21038;-77
2022/11/08 05:52:27;;;;;;;12.15;4.93;;;;;;;;;;4896214;28;20058;-83
2022/11/08 05:54:53;;;;;;;12.25;5.20;;;;;;;;;;4959577;28;20042;-86
2022/11/08 05:57:18;;;;;;;14.75;5.28;;;;;;;;;;4962149;28;20101;-88
2022/11/08 05:59:47;;;;;;;11.48;4.93;;;;;;;;;;4979322;28;20125;-90
2022/11/08 06:02:12;;;;;;;10.95;4.55;;;;;;;;;;4959721;28;20033;-86
2022/11/08 06:04:41;;;;;;;12.73;4.50;;;;;;;;;;4921904;28;20045;-88
2022/11/08 06:07:06;;;;;;;13.02;4.25;;;;;;;;;;4976416;28;20046;-91
2022/11/08 06:09:35;;;;;;;10.80;3.95;;;;;;;;;;4958977;28;20038;-86
2022/11/08 06:12:02;;;;;;;14.60;4.45;;;;;;;;;;4939397;28;21005;-86
2022/11/08 06:14:28;;;;;;;10.20;3.85;;;;;;;;;;4972053;28;20034;-89
2022/11/08 06:16:54;;;;;;;9.52;4.47;;;;;;;;;;4959650;28;20245;-85
2022/11/08 06:19:22;;;;;;;11.10;4.03;;;;;;;;;;4974423;28;20486;-86
2022/11/08 06:21:47;;;;;;;12.63;4.85;;;;;;;;;;4972341;28;20033;-87
2022/11/08 06:24:14;;;;;;;14.85;4.07;;;;;;;;;;4968725;28;20041;-86
2022/11/08 06:26:42;;;;;;;16.33;5.10;;;;;;;;;;4968739;28;20231;-86
2022/11/08 06:29:07;;;;;;;10.95;4.70;;;;;;;;;;4966031;28;20395;-88
2022/11/08 06:31:33;;;;;;;10.73;4.57;;;;;;;;;;4971960;28;20282;-86
2022/11/08 06:33:58;;;;;;;10.07;4.10;;;;;;;;;;4968802;28;20038;-88
2022/11/08 06:36:30;;;;;;;9.95;4.10;;;;;;;;;;4968912;28;20478;-87
2022/11/08 06:38:55;;;;;;;11.32;4.50;;;;;;;;;;4960884;28;20215;-89
2022/11/08 06:41:21;;;;;;;13.00;5.07;;;;;;;;;;4946826;28;20088;-88
2022/11/08 06:43:49;;;;;;;11.68;4.35;;;;;;;;;;4956382;28;20042;-84
2022/11/08 06:46:17;;;;;;;14.15;4.72;;;;;;;;;;4933800;28;20416;-85
2022/11/08 06:48:45;;;;;;;15.98;5.50;;;;;;;;;;4948952;28;20096;-84
2022/11/08 06:51:11;;;;;;;15.85;4.07;;;;;;;;;;4969258;28;20494;-82
2022/11/08 06:53:37;;;;;;;10.07;3.72;;;;;;;;;;4956391;28;20038;-90
2022/11/08 06:56:03;;;;;;;13.10;6.05;;;;;;;;;;4952442;28;20033;-85
2022/11/08 06:58:28;;;;;;;21.77;11.77;;;;;;;;;;4949640;28;20415;-85
2022/11/08 07:00:54;;;;;;;23.83;11.65;;;;;;;;;;4967781;28;20053;-88
2022/11/08 07:03:22;;;;;;;18.20;8.70;;;;;;;;;;4947256;28;20744;-84
2022/11/08 07:05:49;;;;;;;16.48;5.88;;;;;;;;;;4954531;28;20146;-87
2022/11/08 07:08:15;;;;;;;17.80;7.90;;;;;;;;;;4954826;28;20320;-87
2022/11/08 07:10:44;;;;;;;11.65;5.03;;;;;;;;;;4949370;28;20088;-86
2022/11/08 07:13:11;;;;;;;12.85;5.47;;;;;;;;;;4957819;28;20035;-86
2022/11/08 07:15:36;;;;;;;9.52;4.57;;;;;;;;;;4930756;28;20046;-79
2022/11/08 07:18:09;;;;;;;12.05;3.70;;;;;;;;;;4916933;28;20546;-86
2022/11/08 07:20:40;;;;;;;11.80;3.95;;;;;;;;;;4894778;28;20178;-82
2022/11/08 07:23:06;;;;;;;8.63;3.28;;;;;;;;;;4919859;28;20065;-82
2022/11/08 07:25:32;;;;;;;10.30;2.78;;;;;;;;;;4940203;28;20080;-87
2022/11/08 07:28:01;;;;;;;13.38;3.00;;;;;;;;;;4934596;28;20348;-78
2022/11/08 07:30:27;;;;;;;8.98;3.15;;;;;;;;;;4923211;28;20101;-75
2022/11/08 07:32:53;;;;;;;8.18;2.85;;;;;;;;;;4942543;28;20042;-87
2022/11/08 07:35:19;;;;;;;6.47;2.88;;;;;;;;;;4931735;28;20640;-87
2022/11/08 07:37:44;;;;;;;11.63;2.83;;;;;;;;;;4929543;28;20045;-86
2022/11/08 07:40:10;;;;;;;8.93;2.85;;;;;;;;;;4954435;28;20037;-87
2022/11/08 07:42:36;;;;;;;6.97;2.97;;;;;;;;;;4933067;28;20041;-87
2022/11/08 07:45:02;;;;;;;8.80;2.88;;;;;;;;;;4939893;28;20033;-84
2022/11/08 07:47:28;;;;;;;11.45;3.00;;;;;;;;;;4934325;28;20043;-85
2022/11/08 07:49:53;;;;;;;7.10;3.13;;;;;;;;;;4937599;28;20058;-85
2022/11/08 07:52:18;;;;;;;8.02;2.65;;;;;;;;;;4903280;28;20384;-77
2022/11/08 07:54:44;;;;;;;6.25;2.60;;;;;;;;;;4923806;28;20566;-77
2022/11/08 07:57:10;;;;;;;9.20;2.72;;;;;;;;;;4946874;28;20034;-75
2022/11/08 07:59:36;;;;;;;6.82;3.10;;;;;;;;;;4952877;28;20030;-85
2022/11/08 08:02:02;;;;;;;6.63;2.60;;;;;;;;;;4953139;28;20042;-81
2022/11/08 08:04:30;;;;;;;8.70;2.83;;;;;;;;;;4917666;28;20041;-86
2022/11/08 08:06:56;;;;;;;9.93;2.90;;;;;;;;;;4960144;28;20046;-84
2022/11/08 08:09:22;;;;;;;6.25;2.70;;;;;;;;;;4945033;28;20041;-76
2022/11/08 08:11:48;;;;;;;11.18;3.95;;;;;;;;;;4920863;28;20095;-86
2022/11/08 08:14:14;;;;;;;10.75;3.55;;;;;;;;;;4934761;28;20030;-84
2022/11/08 08:16:49;;;;;;;6.68;3.03;;;;;;;;;;4947639;28;20162;-85
2022/11/08 08:19:20;;;;;;;7.40;2.85;;;;;;;;;;4948826;28;20040;-86
2022/11/08 08:22:04;;;;;;;9.85;3.60;;;;;;;;;;4970041;28;20030;-84
2022/11/08 08:24:43;;;;;;;12.57;4.32;;;;;;;;;;4944278;28;20038;-83
2022/11/08 08:27:11;;;;;;;11.18;3.78;;;;;;;;;;4955300;28;20397;-85
2022/11/08 08:29:36;;;;;;;11.38;4.13;;;;;;;;;;4964797;28;20272;-85
2022/11/08 08:32:01;;;;;;;7.63;3.50;;;;;;;;;;4958252;28;20242;-84
2022/11/08 08:34:27;;;;;;;7.10;3.42;;;;;;;;;;4957024;28;20562;-89
2022/11/08 08:36:52;;;;;;;14.30;4.75;;;;;;;;;;4947038;28;20066;-83
2022/11/08 08:39:21;;;;;;;13.32;4.20;;;;;;;;;;4947495;28;20103;-78
2022/11/08 08:41:46;;;;;;;17.23;4.47;;;;;;;;;;4963551;28;20199;-77
2022/11/08 08:44:14;;;;;;;8.20;3.20;;;;;;;;;;4956478;28;20477;-76
2022/11/08 08:46:40;;;;;;;14.10;4.25;;;;;;;;;;4927006;28;21064;-78
2022/11/08 08:49:05;;;;;;;15.98;5.40;;;;;;;;;;4948773;28;20049;-77
2022/11/08 08:51:31;;;;;;;17.42;5.97;;;;;;;;;;4964193;28;20125;-78
2022/11/08 08:53:57;;;;;;;12.57;4.78;;;;;;;;;;4988596;28;20352;-83
2022/11/08 08:56:22;;;;;;;18.27;5.10;;;;;;;;;;4972611;28;20037;-85
2022/11/08 08:58:52;;;;;;;17.42;5.57;;;;;;;;;;4966005;28;20102;-82
2022/11/08 09:01:18;;;;;;;11.85;4.47;;;;;;;;;;4955880;28;20046;-83
2022/11/08 09:03:43;;;;;;;8.98;3.20;;;;;;;;;;4947620;28;20037;-84
2022/11/08 09:06:08;;;;;;;8.52;3.17;;;;;;;;;;4975166;28;20052;-84
2022/11/08 09:08:34;;;;;;;6.50;3.08;;;;;;;;;;4980202;28;20045;-85
2022/11/08 09:11:00;;;;;;;6.85;2.95;;;;;;;;;;4976826;28;20038;-86
2022/11/08 09:13:27;;;;;;;7.90;3.67;;;;;;;;;;4988720;28;20037;-88
2022/11/08 09:15:53;;;;;;;6.55;2.85;;;;;;;;;;4991981;28;20649;-89
2022/11/08 09:18:19;;;;;;;6.30;2.70;;;;;;;;;;4944803;28;20038;-89
2022/11/08 09:20:44;;;;;;;8.93;2.95;;;;;;;;;;4951063;28;20136;-84
2022/11/08 09:23:19;;;;;;;12.82;5.05;;;;;;;;;;4948887;28;20062;-88
2022/11/08 09:25:44;;;;;;;6.60;3.20;;;;;;;;;;4946528;28;20328;-85
2022/11/08 09:28:12;;;;;;;7.82;2.85;;;;;;;;;;4979796;28;20104;-83
2022/11/08 09:30:41;;;;;;;17.25;5.88;;;;;;;;;;4986867;28;20036;-87
2022/11/08 09:33:06;;;;;;;13.70;4.80;;;;;;;;;;4956276;28;20061;-89
2022/11/08 09:35:32;;;;;;;10.48;3.30;;;;;;;;;;4962302;28;20401;-86
2022/11/08 09:37:58;;;;;;;6.53;3.03;;;;;;;;;;4979321;28;20026;-87
2022/11/08 09:40:30;;;;;;;9.30;3.08;;;;;;;;;;4963892;28;20034;-88
2022/11/08 09:42:55;;;;;;;9.25;3.53;;;;;;;;;;4946717;28;20383;-82
2022/11/08 09:45:31;;;;;;;9.95;4.35;;;;;;;;;;4973188;28;20664;-85
2022/11/08 09:47:59;;;;;;;12.50;3.85;;;;;;;;;;4982811;28;20120;-86
2022/11/08 09:50:33;;;;;;;9.40;3.30;;;;;;;;;;4965697;28;20045;-83
2022/11/08 09:52:58;;;;;;;8.95;3.28;;;;;;;;;;4982946;28;20033;-84
2022/11/08 09:55:27;;;;;;;7.63;3.70;;;;;;;;;;4962975;28;20510;-87
2022/11/08 09:57:59;;;;;;;13.68;7.00;;;;;;;;;;4989944;28;20319;-87
2022/11/08 10:00:25;;;;;;;10.40;5.93;;;;;;;;;;4977825;28;20087;-88
2022/11/08 10:02:52;;;;;;;8.90;4.40;;;;;;;;;;4951355;28;20049;-87
2022/11/08 10:05:20;;;;;;;18.05;4.88;;;;;;;;;;4966692;28;20396;-87
2022/11/08 10:07:55;;;;;;;14.98;4.35;;;;;;;;;;4918640;28;20440;-90
2022/11/08 10:10:23;;;;;;;8.60;2.63;;;;;;;;;;4917441;28;20863;-91
2022/11/08 10:12:53;;;;;;;8.85;2.88;;;;;;;;;;4917168;28;20543;-86
2022/11/08 10:15:38;;;;;;;9.35;2.53;;;;;;;;;;4941960;28;20042;-90
2022/11/08 10:18:25;;;;;;;6.65;2.50;;;;;;;;;;4943532;28;20168;-86
2022/11/08 10:21:06;;;;;;;5.93;2.85;;;;;;;;;;4966465;28;20035;-83
2022/11/08 10:23:44;;;;;;;11.05;4.07;;;;;;;;;;4962322;28;20073;-87
2022/11/08 10:26:17;;;;;;;19.98;6.80;;;;;;;;;;4948075;28;20506;-87
2022/11/08 10:28:48;;;;;;;8.80;3.42;;;;;;;;;;4951825;28;20050;-87
2022/11/08 10:31:14;;;;;;;7.38;2.83;;;;;;;;;;4939810;28;20034;-85
2022/11/08 10:33:47;;;;;;;9.00;3.10;;;;;;;;;;4938763;28;20116;-87
2022/11/08 10:36:27;;;;;;;10.15;4.13;;;;;;;;;;4966424;28;20096;-83
2022/11/08 10:38:53;;;;;;;15.27;4.97;;;;;;;;;;4961234;28;20054;-85
2022/11/08 10:41:30;;;;;;;9.52;3.35;;;;;;;;;;4943060;28;20035;-87
2022/11/08 10:44:01;;;;;;;9.75;3.15;;;;;;;;;;4954886;28;20045;-83
2022/11/08 10:46:29;;;;;;;15.77;3.83;;;;;;;;;;4969046;28;20038;-83
2022/11/08 10:48:58;;;;;;;9.40;3.60;;;;;;;;;;4966426;28;20035;-91
2022/11/08 10:51:24;;;;;;;15.10;3.47;;;;;;;;;;4954815;28;20062;-82
2022/11/08 10:53:49;;;;;;;11.63;2.90;;;;;;;;;;4960779;28;20670;-82
2022/11/08 10:56:15;;;;;;;11.15;3.30;;;;;;;;;;4973001;28;20044;-83
2022/11/08 10:58:42;;;;;;;10.15;3.13;;;;;;;;;;4946261;28;20038;-77
2022/11/08 11:01:11;;;;;;;9.05;4.38;;;;;;;;;;4942034;28;20360;-78
2022/11/08 11:03:36;;;;;;;11.00;3.17;;;;;;;;;;4911705;28;20061;-78
2022/11/08 11:06:03;;;;;;;13.68;3.28;;;;;;;;;;4947865;28;20051;-77
2022/11/08 11:08:29;;;;;;;21.23;3.60;;;;;;;;;;4945713;28;20038;-78
2022/11/08 11:11:13;;;;;;;12.68;3.83;;;;;;;;;;4926657;28;20489;-77
2022/11/08 11:13:41;;;;;;;8.30;2.97;;;;;;;;;;4916636;28;20073;-78
2022/11/08 11:16:12;;;;;;;12.05;3.70;;;;;;;;;;4913570;28;20038;-78
2022/11/08 11:18:52;;;;;;;8.90;3.88;;;;;;;;;;4940178;28;20135;-77
2022/11/08 11:21:21;;;;;;;14.93;3.35;;;;;;;;;;4927382;28;20519;-77
2022/11/08 11:23:51;;;;;;;10.98;4.88;;;;;;;;;;4918751;28;20049;-76
2022/11/08 11:26:27;;;;;;;12.50;3.00;;;;;;;;;;4942594;28;20569;-77
2022/11/08 11:29:05;;;;;;;18.05;4.45;;;;;;;;;;4899166;28;20038;-76
2022/11/08 11:31:34;;;;;;;14.25;3.50;;;;;;;;;;4928961;28;20037;-76
2022/11/08 11:34:17;;;;;;;13.02;3.63;;;;;;;;;;4928697;28;20041;-77
2022/11/08 11:36:52;;;;;;;17.08;3.95;;;;;;;;;;4947563;28;20053;-75
2022/11/08 11:39:36;;;;;;;13.13;4.22;;;;;;;;;;4939445;28;20050;-77
2022/11/08 11:42:27;;;;;;;13.85;4.30;;;;;;;;;;4957991;28;20037;-77
2022/11/08 11:44:55;;;;;;;13.10;3.38;;;;;;;;;;4944033;28;20042;-79
2022/11/08 11:47:31;;;;;;;14.05;4.35;;;;;;;;;;4963987;28;20047;-78
2022/11/08 11:50:02;;;;;;;16.67;4.75;;;;;;;;;;4928065;28;20116;-77
2022/11/08 11:52:27;;;;;;;11.13;3.95;;;;;;;;;;4957822;28;20134;-78
2022/11/08 11:54:59;;;;;;;16.42;6.30;;;;;;;;;;4926508;28;20035;-76
2022/11/08 11:57:36;;;;;;;13.65;3.63;;;;;;;;;;4957123;28;22236;-78
2022/11/08 12:00:12;;;;;;;10.52;3.50;;;;;;;;;;4959488;28;20035;-75
2022/11/08 12:02:48;;;;;;;11.85;3.30;;;;;;;;;;4958326;28;20034;-75
2022/11/08 12:05:33;;;;;;;9.07;2.80;;;;;;;;;;4938428;28;20436;-77
2022/11/08 12:08:18;;;;;;;17.30;4.10;;;;;;;;;;4942761;28;20423;-74
2022/11/08 12:10:44;;;;;;;14.77;4.70;;;;;;;;;;4933050;28;20158;-76
2022/11/08 12:13:18;;;;;;;12.52;5.75;;;;;;;;;;4920654;28;20466;-76
2022/11/08 12:15:53;;;;;;;15.98;4.78;;;;;;;;;;4901374;28;20050;-75
2022/11/08 12:18:26;;;;;;;16.52;4.20;;;;;;;;;;4908107;28;20034;-76
2022/11/08 12:21:00;;;;;;;14.60;4.30;;;;;;;;;;4940067;28;20045;-76
2022/11/08 12:23:46;;;;;;;17.08;5.63;;;;;;;;;;4920267;28;20046;-75
2022/11/08 12:26:14;;;;;;;15.50;5.00;;;;;;;;;;4926645;28;20046;-77
2022/11/08 12:28:58;;;;;;;14.52;4.18;;;;;;;;;;4946848;28;20038;-76
2022/11/08 12:31:24;;;;;;;15.57;4.28;;;;;;;;;;4950267;28;21850;-84
2022/11/08 12:33:57;;;;;;;18.67;5.40;;;;;;;;;;4951406;28;20069;-85
2022/11/08 12:36:52;;;;;;;17.17;6.22;;;;;;;;;;4964492;28;20029;-84
2022/11/08 12:39:32;;;;;;;12.75;5.18;;;;;;;;;;4883170;28;20039;-81
2022/11/08 12:42:18;;;;;;;14.38;4.05;;;;;;;;;;4977830;28;20500;-85
2022/11/08 12:44:49;;;;;;;12.13;4.38;;;;;;;;;;4947434;28;20328;-83
2022/11/08 12:47:41;;;;;;;15.52;5.00;;;;;;;;;;4956505;28;20085;-84
2022/11/08 12:50:10;;;;;;;12.90;3.75;;;;;;;;;;4933218;28;20039;-85
2022/11/08 12:52:46;;;;;;;21.10;4.78;;;;;;;;;;4953872;28;20035;-87
2022/11/08 12:55:26;;;;;;;16.92;4.95;;;;;;;;;;4966474;28;20038;-81
2022/11/08 12:57:56;;;;;;;12.63;4.18;;;;;;;;;;4979216;28;20177;-81
2022/11/08 13:00:21;;;;;;;13.45;3.20;;;;;;;;;;4941021;28;20427;-81
2022/11/08 13:03:05;;;;;;;13.45;4.03;;;;;;;;;;4956578;28;20042;-81
2022/11/08 13:05:33;;;;;;;21.50;5.30;;;;;;;;;;4941641;28;20069;-80
2022/11/08 13:08:17;;;;;;;14.52;4.93;;;;;;;;;;4950795;28;20050;-86
2022/11/08 13:10:52;;;;;;;16.60;5.03;;;;;;;;;;4952708;28;20097;-83
2022/11/08 13:13:19;;;;;;;15.13;5.10;;;;;;;;;;4949213;28;20034;-83
2022/11/08 13:16:04;;;;;;;17.63;4.82;;;;;;;;;;4942238;28;20097;-78
2022/11/08 13:18:36;;;;;;;12.90;4.75;;;;;;;;;;4939948;28;20038;-78
2022/11/08 13:21:23;;;;;;;17.95;3.88;;;;;;;;;;4940658;28;20042;-78
2022/11/08 13:23:49;;;;;;;19.08;3.78;;;;;;;;;;4941517;28;22239;-78
2022/11/08 13:26:21;;;;;;;13.75;3.17;;;;;;;;;;4927391;28;20398;-77
2022/11/08 13:28:47;;;;;;;10.32;2.72;;;;;;;;;;4933802;28;20043;-78
2022/11/08 13:31:22;;;;;;;14.77;3.40;;;;;;;;;;4929662;28;20031;-77
2022/11/08 13:33:56;;;;;;;9.30;3.15;;;;;;;;;;4920032;28;20045;-79
2022/11/08 13:36:30;;;;;;;14.18;3.33;;;;;;;;;;4912645;28;20031;-78
2022/11/08 13:39:14;;;;;;;9.13;2.80;;;;;;;;;;4955090;28;20042;-84
2022/11/08 13:42:00;;;;;;;9.77;3.72;;;;;;;;;;4959436;28;20086;-88
2022/11/08 13:44:44;;;;;;;9.32;3.88;;;;;;;;;;4962066;28;20038;-83
2022/11/08 13:47:29;;;;;;;13.40;3.10;;;;;;;;;;4955612;28;20042;-84
2022/11/08 13:50:15;;;;;;;13.30;3.80;;;;;;;;;;4940078;28;20038;-85
2022/11/08 13:52:44;;;;;;;10.45;3.70;;;;;;;;;;4926053;28;20362;-77
2022/11/08 13:55:32;;;;;;;17.08;4.68;;;;;;;;;;4920528;28;20236;-77
2022/11/08 13:57:59;;;;;;;14.32;4.60;;;;;;;;;;4932107;28;20045;-77
2022/11/08 14:00:42;;;;;;;14.55;3.28;;;;;;;;;;4915216;28;20645;-76
2022/11/08 14:03:27;;;;;;;13.82;3.60;;;;;;;;;;4943600;28;20042;-78
2022/11/08 14:05:55;;;;;;;10.00;3.63;;;;;;;;;;4935711;28;20084;-74
2022/11/08 14:08:23;;;;;;;14.98;4.47;;;;;;;;;;4961727;28;20029;-79
2022/11/08 14:11:09;;;;;;;9.52;3.38;;;;;;;;;;4947920;28;20025;-78
2022/11/08 14:13:41;;;;;;;13.15;3.35;;;;;;;;;;4965124;28;21345;-77
2022/11/08 14:16:16;;;;;;;15.43;3.70;;;;;;;;;;4957144;28;20029;-78
2022/11/08 14:18:43;;;;;;;18.00;4.97;;;;;;;;;;4954239;28;20319;-77
2022/11/08 14:21:16;;;;;;;15.75;4.25;;;;;;;;;;4930638;28;20224;-77
2022/11/08 14:23:43;;;;;;;14.45;4.35;;;;;;;;;;4980170;28;20450;-83
2022/11/08 14:26:35;;;;;;;20.75;6.07;;;;;;;;;;4941759;28;20069;-85
2022/11/08 14:29:00;;;;;;;18.10;4.88;;;;;;;;;;4969532;28;20065;-86
2022/11/08 14:31:30;;;;;;;17.48;4.88;;;;;;;;;;4963031;28;20036;-85
2022/11/08 14:33:57;;;;;;;18.77;4.28;;;;;;;;;;4978888;28;20034;-83
2022/11/08 14:36:24;;;;;;;12.68;3.72;;;;;;;;;;4953644;28;20229;-84
2022/11/08 14:38:50;;;;;;;11.88;3.97;;;;;;;;;;4982450;28;20030;-85
2022/11/08 14:41:18;;;;;;;11.88;4.30;;;;;;;;;;4957932;28;20526;-87
2022/11/08 14:43:46;;;;;;;13.27;4.53;;;;;;;;;;4943507;28;20439;-86
2022/11/08 14:46:18;;;;;;;12.55;3.85;;;;;;;;;;4969290;28;20046;-86
2022/11/08 14:48:50;;;;;;;12.90;4.03;;;;;;;;;;4964557;28;20030;-88
2022/11/08 14:51:20;;;;;;;11.05;4.28;;;;;;;;;;4960608;28;20029;-85
2022/11/08 14:53:53;;;;;;;10.63;3.63;;;;;;;;;;4956638;28;20029;-88
2022/11/08 14:56:25;;;;;;;12.52;3.95;;;;;;;;;;4957647;28;20034;-86
2022/11/08 14:58:52;;;;;;;14.65;5.15;;;;;;;;;;4964508;28;20038;-85
2022/11/08 15:01:22;;;;;;;16.73;4.80;;;;;;;;;;4979207;28;20763;-85
2022/11/08 15:03:54;;;;;;;14.73;4.35;;;;;;;;;;4948797;28;20049;-87
2022/11/08 15:06:37;;;;;;;14.43;4.15;;;;;;;;;;4972211;28;20045;-86
2022/11/08 15:09:03;;;;;;;14.32;4.45;;;;;;;;;;4977560;28;20542;-83